createdAt,value
2022-12-16T00:00:04.165Z,105.00
2022-12-16T00:00:26.998Z,106.10
2022-12-16T00:00:49.918Z,102.93
2022-12-16T00:01:14.335Z,102.38
2022-12-16T00:01:37.288Z,109.85
2022-12-16T00:02:00.225Z,106.18
2022-12-16T00:02:23.296Z,107.80
2022-12-16T00:02:46.404Z,108.78
2022-12-16T00:03:11.874Z,105.50
2022-12-16T00:03:35.157Z,106.00
2022-12-16T00:04:00.183Z,109.32
2022-12-16T00:04:23.194Z,105.80
2022-12-16T00:04:46.003Z,107.10
2022-12-16T00:05:09.143Z,107.07
2022-12-16T00:05:31.844Z,109.95
2022-12-16T00:05:55.939Z,107.32
2022-12-16T00:06:18.719Z,106.47
2022-12-16T00:06:41.438Z,103.97
2022-12-16T00:07:04.167Z,106.15
2022-12-16T00:07:26.954Z,107.57
2022-12-16T00:07:49.750Z,104.90
2022-12-16T00:08:12.404Z,108.35
2022-12-16T00:08:36.970Z,105.60
2022-12-16T00:08:59.707Z,106.65
2022-12-16T00:09:22.463Z,103.80
2022-12-16T00:09:45.494Z,103.35
2022-12-16T00:10:09.509Z,102.85
2022-12-16T00:10:52.215Z,102.82
2022-12-16T00:11:15.139Z,101.53
2022-12-16T00:11:38.084Z,103.75
2022-12-16T00:12:00.805Z,101.30
2022-12-16T00:12:23.587Z,103.35
2022-12-16T00:12:46.366Z,102.90
2022-12-16T00:13:10.796Z,99.85
2022-12-16T00:13:34.673Z,99.95
2022-12-16T00:13:57.930Z,99.32
2022-12-16T00:14:20.704Z,99.88
2022-12-16T00:14:45.901Z,99.82
2022-12-16T00:15:09.418Z,104.15
2022-12-16T00:15:32.114Z,100.07
2022-12-16T00:15:54.993Z,99.80
2022-12-16T00:16:18.589Z,99.75
2022-12-16T00:16:41.529Z,99.95
2022-12-16T00:17:04.254Z,102.22
2022-12-16T00:17:26.987Z,104.63
2022-12-16T00:17:49.734Z,106.43
2022-12-16T00:18:15.224Z,103.13
2022-12-16T00:18:38.884Z,99.35
2022-12-16T00:19:03.256Z,100.13
2022-12-16T00:19:26.028Z,100.90
2022-12-16T00:19:48.817Z,99.18
2022-12-16T00:20:12.866Z,99.97
2022-12-16T00:20:35.635Z,100.47
2022-12-16T00:20:59.146Z,95.85
2022-12-16T00:21:21.844Z,98.80
2022-12-16T00:21:44.475Z,98.00
2022-12-16T00:22:07.218Z,97.85
2022-12-16T00:22:31.348Z,98.70
2022-12-16T00:22:54.625Z,92.18
2022-12-16T00:23:17.320Z,91.38
2022-12-16T00:23:41.837Z,94.65
2022-12-16T00:24:04.748Z,94.05
2022-12-16T00:24:27.549Z,92.50
2022-12-16T00:24:52.484Z,93.68
2022-12-16T00:25:15.439Z,92.43
2022-12-16T00:25:38.143Z,91.55
2022-12-16T00:26:00.936Z,92.20
2022-12-16T00:26:23.759Z,90.22
2022-12-16T00:26:46.479Z,92.43
2022-12-16T00:27:09.183Z,91.47
2022-12-16T00:27:31.930Z,92.43
2022-12-16T00:28:00.209Z,92.68
2022-12-16T00:28:23.429Z,90.38
2022-12-16T00:28:46.174Z,90.85
2022-12-16T00:29:11.211Z,92.88
2022-12-16T00:29:34.037Z,92.60
2022-12-16T00:29:57.015Z,94.35
2022-12-16T00:30:19.735Z,94.90
2022-12-16T00:30:42.459Z,90.43
2022-12-16T00:31:05.518Z,90.47
2022-12-16T00:31:28.575Z,92.60
2022-12-16T00:31:51.272Z,92.13
2022-12-16T00:32:14.112Z,92.45
2022-12-16T00:32:36.884Z,91.63
2022-12-16T00:32:59.639Z,93.80
2022-12-16T00:33:22.885Z,91.45
2022-12-16T00:33:45.765Z,91.80
2022-12-16T00:34:10.004Z,92.18
2022-12-16T00:34:33.423Z,89.45
2022-12-16T00:34:56.179Z,91.18
2022-12-16T00:35:18.916Z,94.30
2022-12-16T00:35:46.002Z,91.45
2022-12-16T00:36:09.760Z,89.18
2022-12-16T00:36:32.868Z,88.78
2022-12-16T00:36:55.620Z,91.65
2022-12-16T00:37:18.390Z,93.53
2022-12-16T00:37:41.118Z,95.82
2022-12-16T00:38:03.856Z,95.78
2022-12-16T00:38:26.869Z,91.80
2022-12-16T00:38:52.017Z,93.93
2022-12-16T00:39:14.780Z,92.95
2022-12-16T00:39:37.479Z,93.40
2022-12-16T00:40:00.207Z,90.38
2022-12-16T00:40:22.949Z,92.40
2022-12-16T00:40:45.704Z,88.05
2022-12-16T00:41:09.557Z,89.35
2022-12-16T00:41:32.449Z,90.63
2022-12-16T00:41:55.119Z,91.72
2022-12-16T00:42:17.779Z,90.40
2022-12-16T00:42:40.723Z,91.47
2022-12-16T00:43:03.516Z,91.75
2022-12-16T00:43:26.273Z,90.55
2022-12-16T00:43:48.990Z,93.03
2022-12-16T00:44:11.715Z,92.40
2022-12-16T00:44:34.436Z,93.10
2022-12-16T00:44:57.145Z,92.88
2022-12-16T00:45:22.410Z,94.70
2022-12-16T00:45:46.524Z,92.30
2022-12-16T00:46:09.281Z,92.65
2022-12-16T00:46:32.028Z,94.15
2022-12-16T00:46:55.046Z,92.45
2022-12-16T00:47:17.924Z,94.13
2022-12-16T00:47:43.928Z,92.80
2022-12-16T00:48:07.107Z,95.95
2022-12-16T00:48:29.884Z,93.05
2022-12-16T00:48:52.659Z,92.82
2022-12-16T00:49:16.742Z,90.00
2022-12-16T00:49:42.246Z,89.32
2022-12-16T00:50:06.764Z,95.28
2022-12-16T00:50:29.854Z,95.18
2022-12-16T00:50:55.233Z,90.47
2022-12-16T00:51:18.255Z,91.30
2022-12-16T00:51:41.125Z,92.57
2022-12-16T00:52:04.194Z,93.95
2022-12-16T00:52:27.040Z,93.05
2022-12-16T00:52:49.949Z,95.80
2022-12-16T00:53:13.460Z,96.85
2022-12-16T00:53:36.566Z,94.95
2022-12-16T00:53:59.745Z,102.43
2022-12-16T00:54:22.555Z,101.97
2022-12-16T00:54:45.281Z,99.22
2022-12-16T00:55:08.730Z,98.80
2022-12-16T00:55:32.736Z,99.63
2022-12-16T00:56:05.058Z,98.18
2022-12-16T00:56:27.720Z,98.20
2022-12-16T00:56:50.408Z,99.53
2022-12-16T00:57:14.809Z,99.32
2022-12-16T00:57:37.494Z,97.90
2022-12-16T00:58:00.302Z,98.72
2022-12-16T00:58:23.028Z,99.15
2022-12-16T00:58:45.927Z,101.97
2022-12-16T00:59:08.996Z,101.95
2022-12-16T00:59:32.319Z,103.80
2022-12-16T00:59:55.035Z,102.30
2022-12-16T01:00:18.790Z,100.88
2022-12-16T01:00:41.588Z,104.50
2022-12-16T01:01:04.564Z,103.55
2022-12-16T01:01:27.537Z,101.47
2022-12-16T01:01:50.762Z,100.25
2022-12-16T01:02:13.736Z,98.70
2022-12-16T01:02:36.755Z,102.28
2022-12-16T01:02:59.886Z,105.22
2022-12-16T01:03:22.862Z,103.00
2022-12-16T01:03:46.114Z,103.97
2022-12-16T01:04:08.858Z,103.45
2022-12-16T01:04:33.071Z,99.10
2022-12-16T01:04:55.835Z,100.93
2022-12-16T01:05:21.358Z,99.07
2022-12-16T01:05:44.171Z,102.15
2022-12-16T01:06:10.564Z,103.93
2022-12-16T01:06:33.309Z,102.85
2022-12-16T01:06:56.039Z,104.28
2022-12-16T01:07:18.705Z,104.05
2022-12-16T01:07:41.595Z,102.55
2022-12-16T01:08:04.521Z,101.00
2022-12-16T01:08:27.384Z,98.20
2022-12-16T01:08:50.061Z,102.03
2022-12-16T01:09:12.744Z,97.13
2022-12-16T01:09:37.630Z,99.20
2022-12-16T01:10:00.309Z,102.53
2022-12-16T01:10:23.116Z,99.50
2022-12-16T01:10:51.044Z,100.20
2022-12-16T01:11:13.843Z,97.65
2022-12-16T01:11:36.616Z,98.15
2022-12-16T01:12:00.322Z,97.45
2022-12-16T01:12:24.175Z,102.25
2022-12-16T01:12:46.891Z,100.25
2022-12-16T01:13:09.619Z,99.03
2022-12-16T01:13:35.459Z,95.80
2022-12-16T01:13:59.862Z,94.93
2022-12-16T01:14:22.584Z,96.82
2022-12-16T01:14:45.307Z,97.85
2022-12-16T01:15:12.895Z,98.05
2022-12-16T01:15:35.539Z,94.45
2022-12-16T01:16:00.614Z,95.38
2022-12-16T01:16:23.426Z,96.00
2022-12-16T01:16:46.275Z,93.60
2022-12-16T01:17:09.119Z,96.57
2022-12-16T01:17:31.814Z,96.30
2022-12-16T01:17:57.035Z,96.90
2022-12-16T01:18:19.753Z,94.97
2022-12-16T01:18:42.515Z,92.57
2022-12-16T01:19:05.283Z,91.68
2022-12-16T01:19:28.110Z,96.22
2022-12-16T01:19:52.243Z,96.60
2022-12-16T01:20:14.878Z,92.38
2022-12-16T01:20:38.929Z,92.07
2022-12-16T01:21:03.928Z,92.72
2022-12-16T01:21:26.609Z,94.03
2022-12-16T01:21:49.301Z,96.75
2022-12-16T01:22:14.284Z,92.70
2022-12-16T01:22:37.039Z,92.03
2022-12-16T01:22:59.749Z,92.50
2022-12-16T01:23:23.088Z,95.80
2022-12-16T01:23:48.054Z,93.65
2022-12-16T01:24:10.830Z,91.28
2022-12-16T01:24:33.785Z,94.63
2022-12-16T01:24:56.482Z,97.60
2022-12-16T01:25:19.265Z,96.65
2022-12-16T01:25:42.022Z,98.00
2022-12-16T01:26:04.923Z,101.10
2022-12-16T01:26:27.778Z,99.30
2022-12-16T01:26:50.434Z,96.43
2022-12-16T01:27:13.180Z,94.47
2022-12-16T01:27:35.881Z,99.22
2022-12-16T01:27:58.649Z,97.63
2022-12-16T01:28:21.346Z,94.63
2022-12-16T01:28:44.169Z,95.22
2022-12-16T01:29:08.796Z,96.80
2022-12-16T01:29:31.619Z,96.78
2022-12-16T01:29:54.397Z,96.78
2022-12-16T01:30:18.264Z,95.57
2022-12-16T01:30:40.955Z,99.75
2022-12-16T01:31:03.693Z,96.93
2022-12-16T01:31:26.401Z,98.55
2022-12-16T01:31:49.196Z,99.03
2022-12-16T01:32:13.008Z,94.05
2022-12-16T01:32:36.017Z,96.70
2022-12-16T01:32:58.745Z,95.20
2022-12-16T01:33:21.487Z,95.03
2022-12-16T01:33:44.281Z,91.60
2022-12-16T01:34:06.978Z,92.32
2022-12-16T01:34:29.806Z,91.18
2022-12-16T01:34:55.611Z,95.47
2022-12-16T01:35:51.426Z,92.25
2022-12-16T01:36:02.073Z,93.82
2022-12-16T01:36:24.801Z,94.20
2022-12-16T01:36:47.579Z,92.18
2022-12-16T01:37:11.142Z,92.43
2022-12-16T01:37:34.901Z,92.72
2022-12-16T01:37:58.245Z,95.78
2022-12-16T01:38:20.978Z,93.97
2022-12-16T01:38:44.659Z,94.60
2022-12-16T01:39:07.414Z,96.93
2022-12-16T01:39:30.388Z,92.90
2022-12-16T01:39:53.062Z,96.68
2022-12-16T01:40:19.192Z,95.95
2022-12-16T01:40:42.095Z,93.05
2022-12-16T01:41:06.134Z,90.80
2022-12-16T01:41:28.882Z,91.85
2022-12-16T01:41:51.589Z,94.80
2022-12-16T01:42:15.136Z,91.22
2022-12-16T01:42:38.923Z,92.18
2022-12-16T01:43:01.614Z,94.90
2022-12-16T01:43:25.934Z,96.47
2022-12-16T01:43:48.738Z,98.63
2022-12-16T01:44:14.601Z,97.32
2022-12-16T01:44:37.500Z,94.85
2022-12-16T01:45:27.266Z,93.45
2022-12-16T01:45:50.027Z,90.93
2022-12-16T01:46:17.357Z,90.72
2022-12-16T01:46:40.035Z,94.22
2022-12-16T01:47:05.120Z,96.13
2022-12-16T01:47:30.254Z,93.22
2022-12-16T01:47:53.216Z,93.55
2022-12-16T01:48:21.611Z,93.50
2022-12-16T01:48:46.526Z,93.82
2022-12-16T01:49:10.918Z,93.00
2022-12-16T01:49:36.850Z,92.18
2022-12-16T01:50:03.364Z,91.65
2022-12-16T01:50:26.175Z,92.68
2022-12-16T01:50:48.945Z,93.28
2022-12-16T01:51:14.560Z,91.28
2022-12-16T01:51:38.560Z,94.32
2022-12-16T01:52:03.037Z,93.30
2022-12-16T01:52:28.190Z,92.38
2022-12-16T01:52:53.781Z,93.95
2022-12-16T01:53:16.821Z,95.20
2022-12-16T01:53:39.857Z,95.05
2022-12-16T01:54:03.977Z,94.43
2022-12-16T01:54:28.506Z,95.55
2022-12-16T01:54:52.909Z,95.35
2022-12-16T01:55:20.880Z,94.75
2022-12-16T01:55:45.770Z,96.35
2022-12-16T01:56:08.477Z,94.97
2022-12-16T01:56:31.781Z,92.60
2022-12-16T01:56:55.659Z,98.68
2022-12-16T01:57:20.366Z,95.45
2022-12-16T01:57:45.781Z,100.13
2022-12-16T01:58:10.580Z,100.07
2022-12-16T01:58:34.596Z,98.47
2022-12-16T01:58:57.455Z,100.20
2022-12-16T01:59:20.475Z,99.00
2022-12-16T01:59:43.845Z,98.82
2022-12-16T02:00:08.063Z,97.90
2022-12-16T02:00:30.888Z,102.03
2022-12-16T02:00:54.625Z,104.35
2022-12-16T02:01:17.696Z,98.38
2022-12-16T02:01:40.779Z,99.50
2022-12-16T02:02:03.884Z,102.82
2022-12-16T02:02:27.369Z,100.03
2022-12-16T02:02:50.669Z,102.03
2022-12-16T02:03:13.536Z,102.97
2022-12-16T02:03:37.369Z,101.97
2022-12-16T02:04:02.091Z,101.72
2022-12-16T02:04:24.865Z,97.10
2022-12-16T02:05:05.861Z,99.57
2022-12-16T02:05:30.272Z,98.05
2022-12-16T02:05:52.966Z,96.05
2022-12-16T02:06:15.772Z,96.93
2022-12-16T02:06:38.538Z,101.82
2022-12-16T02:07:01.289Z,102.00
2022-12-16T02:07:24.915Z,100.07
2022-12-16T02:07:53.895Z,98.20
2022-12-16T02:08:18.645Z,97.22
2022-12-16T02:08:41.370Z,97.35
2022-12-16T02:09:08.502Z,95.97
2022-12-16T02:09:31.209Z,94.20
2022-12-16T02:09:53.971Z,98.13
2022-12-16T02:10:16.752Z,97.40
2022-12-16T02:10:55.108Z,95.82
2022-12-16T02:11:39.532Z,96.15
2022-12-16T02:12:18.551Z,94.18
2022-12-16T02:12:44.723Z,97.90
2022-12-16T02:13:12.961Z,96.20
2022-12-16T02:13:43.156Z,94.18
2022-12-16T02:14:39.901Z,97.20
2022-12-16T02:15:14.451Z,97.18
2022-12-16T02:15:39.689Z,97.28
2022-12-16T02:16:05.409Z,97.07
2022-12-16T02:16:30.739Z,95.97
2022-12-16T02:16:55.214Z,93.03
2022-12-16T02:17:21.631Z,94.63
2022-12-16T02:17:48.950Z,97.68
2022-12-16T02:18:18.241Z,96.18
2022-12-16T02:18:44.196Z,98.70
2022-12-16T02:19:11.465Z,93.28
2022-12-16T02:19:59.795Z,97.93
2022-12-16T02:20:59.225Z,96.88
2022-12-16T02:21:32.839Z,99.72
2022-12-16T02:21:58.362Z,94.35
2022-12-16T02:22:27.937Z,94.60
2022-12-16T02:23:00.874Z,95.88
2022-12-16T02:23:37.661Z,97.82
2022-12-16T02:24:31.030Z,96.78
2022-12-16T02:25:30.486Z,101.10
2022-12-16T02:26:17.210Z,96.47
2022-12-16T02:27:03.070Z,99.20
2022-12-16T02:27:48.152Z,95.90
2022-12-16T02:28:12.041Z,96.97
2022-12-16T02:28:42.239Z,97.32
2022-12-16T02:29:33.240Z,94.85
2022-12-16T02:30:08.580Z,95.30
2022-12-16T02:30:55.767Z,98.47
2022-12-16T02:31:22.561Z,95.95
2022-12-16T02:31:53.149Z,97.57
2022-12-16T02:32:19.256Z,97.15
2022-12-16T02:32:49.545Z,101.15
2022-12-16T02:33:22.452Z,101.45
2022-12-16T02:33:51.355Z,104.95
2022-12-16T02:34:18.861Z,97.75
2022-12-16T02:34:45.011Z,100.25
2022-12-16T02:35:10.251Z,97.97
2022-12-16T02:35:39.041Z,100.15
2022-12-16T02:36:12.014Z,97.72
2022-12-16T02:36:46.445Z,101.57
2022-12-16T02:37:12.812Z,97.35
2022-12-16T02:37:39.074Z,98.75
2022-12-16T02:38:08.575Z,97.85
2022-12-16T02:38:35.205Z,95.00
2022-12-16T02:38:59.905Z,95.82
2022-12-16T02:39:23.642Z,94.32
2022-12-16T02:39:49.658Z,93.63
2022-12-16T02:40:17.296Z,93.05
2022-12-16T02:40:43.210Z,96.13
2022-12-16T02:41:06.676Z,95.32
2022-12-16T02:41:34.810Z,92.65
2022-12-16T02:42:00.645Z,91.70
2022-12-16T02:42:31.579Z,91.32
2022-12-16T02:42:55.475Z,91.35
2022-12-16T02:43:21.001Z,95.40
2022-12-16T02:43:51.089Z,97.82
2022-12-16T02:44:13.951Z,95.28
2022-12-16T02:44:41.914Z,97.75
2022-12-16T02:45:06.587Z,98.95
2022-12-16T02:45:30.135Z,96.72
2022-12-16T02:45:53.192Z,97.93
2022-12-16T02:46:18.719Z,101.95
2022-12-16T02:46:42.250Z,101.63
2022-12-16T02:47:05.137Z,100.80
2022-12-16T02:47:28.151Z,100.22
2022-12-16T02:47:53.464Z,99.35
2022-12-16T02:48:20.406Z,97.07
2022-12-16T02:48:43.070Z,96.93
2022-12-16T02:49:09.946Z,98.40
2022-12-16T02:49:53.502Z,95.10
2022-12-16T02:50:19.331Z,97.25
2022-12-16T02:50:44.157Z,97.20
2022-12-16T02:51:06.891Z,98.72
2022-12-16T02:51:29.571Z,95.57
2022-12-16T02:51:54.746Z,91.65
2022-12-16T02:52:20.345Z,95.15
2022-12-16T02:52:43.144Z,92.28
2022-12-16T02:53:05.870Z,92.55
2022-12-16T02:53:28.723Z,91.68
2022-12-16T02:53:51.905Z,93.00
2022-12-16T02:54:14.652Z,93.55
2022-12-16T02:54:37.859Z,91.20
2022-12-16T02:55:03.401Z,94.85
2022-12-16T02:55:28.670Z,92.60
2022-12-16T02:55:55.461Z,95.40
2022-12-16T02:56:29.850Z,96.22
2022-12-16T02:56:56.650Z,92.65
2022-12-16T02:58:00.502Z,90.93
2022-12-16T02:58:25.948Z,92.95
2022-12-16T02:58:52.172Z,92.68
2022-12-16T02:59:19.241Z,94.65
2022-12-16T02:59:44.349Z,96.10
2022-12-16T03:00:08.545Z,93.63
2022-12-16T03:00:35.930Z,89.07
2022-12-16T03:01:02.781Z,88.53
2022-12-16T03:01:30.355Z,90.95
2022-12-16T03:01:55.041Z,89.72
2022-12-16T03:02:22.945Z,91.50
2022-12-16T03:02:49.702Z,89.18
2022-12-16T03:03:14.583Z,89.93
2022-12-16T03:03:40.466Z,88.40
2022-12-16T03:04:06.307Z,86.90
2022-12-16T03:04:32.150Z,89.53
2022-12-16T03:04:56.475Z,91.35
2022-12-16T03:05:21.337Z,92.68
2022-12-16T03:05:48.329Z,93.97
2022-12-16T03:06:11.391Z,89.85
2022-12-16T03:06:34.114Z,92.22
2022-12-16T03:06:57.914Z,92.72
2022-12-16T03:07:22.075Z,88.20
2022-12-16T03:07:44.789Z,90.10
2022-12-16T03:08:09.624Z,88.78
2022-12-16T03:08:34.852Z,86.90
2022-12-16T03:08:58.719Z,87.38
2022-12-16T03:09:23.920Z,88.88
2022-12-16T03:09:47.036Z,90.60
2022-12-16T03:10:18.308Z,88.47
2022-12-16T03:10:45.278Z,90.10
2022-12-16T03:11:10.876Z,89.60
2022-12-16T03:11:33.626Z,89.63
2022-12-16T03:11:56.374Z,89.57
2022-12-16T03:12:19.110Z,85.90
2022-12-16T03:12:42.495Z,86.72
2022-12-16T03:13:05.162Z,90.03
2022-12-16T03:13:29.290Z,88.63
2022-12-16T03:13:52.962Z,86.65
2022-12-16T03:14:17.149Z,89.80
2022-12-16T03:14:41.716Z,91.15
2022-12-16T03:15:08.076Z,93.15
2022-12-16T03:15:32.350Z,89.68
2022-12-16T03:15:55.080Z,89.32
2022-12-16T03:16:18.882Z,88.78
2022-12-16T03:16:43.321Z,94.22
2022-12-16T03:17:07.144Z,92.70
2022-12-16T03:17:30.735Z,94.03
2022-12-16T03:17:53.434Z,96.45
2022-12-16T03:18:16.166Z,95.85
2022-12-16T03:18:40.403Z,96.13
2022-12-16T03:19:04.323Z,94.47
2022-12-16T03:19:27.166Z,96.03
2022-12-16T03:19:55.520Z,95.70
2022-12-16T03:20:22.296Z,96.10
2022-12-16T03:20:46.746Z,99.68
2022-12-16T03:21:09.463Z,97.20
2022-12-16T03:21:34.781Z,97.68
2022-12-16T03:22:01.328Z,91.53
2022-12-16T03:22:25.730Z,90.97
2022-12-16T03:22:48.686Z,92.82
2022-12-16T03:23:13.995Z,95.07
2022-12-16T03:23:38.900Z,94.97
2022-12-16T03:24:05.765Z,93.00
2022-12-16T03:24:28.596Z,93.50
2022-12-16T03:24:53.446Z,94.53
2022-12-16T03:25:16.648Z,96.63
2022-12-16T03:25:41.359Z,94.80
2022-12-16T03:26:06.414Z,95.75
2022-12-16T03:26:30.848Z,93.35
2022-12-16T03:26:57.175Z,90.93
2022-12-16T03:27:22.030Z,92.80
2022-12-16T03:27:47.202Z,96.13
2022-12-16T03:28:15.210Z,93.55
2022-12-16T03:28:43.606Z,93.15
2022-12-16T03:29:07.824Z,94.05
2022-12-16T03:29:33.956Z,93.68
2022-12-16T03:29:59.363Z,93.70
2022-12-16T03:30:25.021Z,94.25
2022-12-16T03:30:51.626Z,98.07
2022-12-16T03:31:18.788Z,96.57
2022-12-16T03:31:44.205Z,97.47
2022-12-16T03:32:09.655Z,97.72
2022-12-16T03:32:35.367Z,98.45
2022-12-16T03:33:00.219Z,97.95
2022-12-16T03:33:24.595Z,98.78
2022-12-16T03:33:50.082Z,98.80
2022-12-16T03:34:16.577Z,101.05
2022-12-16T03:34:41.289Z,100.13
2022-12-16T03:35:08.127Z,102.20
2022-12-16T03:35:33.495Z,102.88
2022-12-16T03:35:59.125Z,106.13
2022-12-16T03:36:22.823Z,107.28
2022-12-16T03:36:48.031Z,106.88
2022-12-16T03:37:12.235Z,109.78
2022-12-16T03:37:35.034Z,104.88
2022-12-16T03:37:58.000Z,107.60
2022-12-16T03:38:21.940Z,104.05
2022-12-16T03:38:45.671Z,105.85
2022-12-16T03:39:08.399Z,106.93
2022-12-16T03:39:32.339Z,106.00
2022-12-16T03:39:57.419Z,106.05
2022-12-16T03:40:20.195Z,107.90
2022-12-16T03:40:43.011Z,104.50
2022-12-16T03:41:05.899Z,103.38
2022-12-16T03:41:28.644Z,104.60
2022-12-16T03:41:51.656Z,105.28
2022-12-16T03:42:15.230Z,102.95
2022-12-16T03:42:38.004Z,100.18
2022-12-16T03:43:01.653Z,101.00
2022-12-16T03:43:24.438Z,100.88
2022-12-16T03:43:48.384Z,100.65
2022-12-16T03:44:11.244Z,101.05
2022-12-16T03:44:35.170Z,97.57
2022-12-16T03:44:57.865Z,102.78
2022-12-16T03:45:24.894Z,99.90
2022-12-16T03:45:49.453Z,102.32
2022-12-16T03:46:12.368Z,98.35
2022-12-16T03:46:35.244Z,97.07
2022-12-16T03:46:59.415Z,99.38
2022-12-16T03:47:24.032Z,99.65
2022-12-16T03:47:49.706Z,99.80
2022-12-16T03:48:13.251Z,98.68
2022-12-16T03:48:36.372Z,96.93
2022-12-16T03:48:59.104Z,95.65
2022-12-16T03:49:23.070Z,98.00
2022-12-16T03:49:45.765Z,97.63
2022-12-16T03:50:09.301Z,95.07
2022-12-16T03:50:33.471Z,95.05
2022-12-16T03:50:56.179Z,99.63
2022-12-16T03:51:18.999Z,98.78
2022-12-16T03:51:41.805Z,97.30
2022-12-16T03:52:07.335Z,97.32
2022-12-16T03:52:30.093Z,96.25
2022-12-16T03:52:53.284Z,96.63
2022-12-16T03:53:16.036Z,96.82
2022-12-16T03:53:39.382Z,93.97
2022-12-16T03:54:02.095Z,94.22
2022-12-16T03:54:25.861Z,93.25
2022-12-16T03:54:48.564Z,94.78
2022-12-16T03:55:11.233Z,95.15
2022-12-16T03:55:33.922Z,95.28
2022-12-16T03:55:56.665Z,96.10
2022-12-16T03:56:19.435Z,97.32
2022-12-16T03:56:42.656Z,94.80
2022-12-16T03:57:07.314Z,95.28
2022-12-16T03:57:32.002Z,91.93
2022-12-16T03:57:54.755Z,91.97
2022-12-16T03:58:17.485Z,94.55
2022-12-16T03:58:40.476Z,98.65
2022-12-16T03:59:03.204Z,99.03
2022-12-16T03:59:26.164Z,94.75
2022-12-16T03:59:48.981Z,97.50
2022-12-16T04:00:13.036Z,95.57
2022-12-16T04:00:35.680Z,93.57
2022-12-16T04:00:58.403Z,93.82
2022-12-16T04:01:21.296Z,95.85
2022-12-16T04:01:44.336Z,94.90
2022-12-16T04:02:08.929Z,92.55
2022-12-16T04:02:32.003Z,94.68
2022-12-16T04:02:55.168Z,98.50
2022-12-16T04:03:20.575Z,97.15
2022-12-16T04:03:43.398Z,98.05
2022-12-16T04:04:06.352Z,96.53
2022-12-16T04:04:29.194Z,96.13
2022-12-16T04:04:52.010Z,98.38
2022-12-16T04:05:14.858Z,98.15
2022-12-16T04:05:37.526Z,96.88
2022-12-16T04:06:00.255Z,97.85
2022-12-16T04:06:22.985Z,97.45
2022-12-16T04:06:45.784Z,94.43
2022-12-16T04:07:20.383Z,96.40
2022-12-16T04:07:43.339Z,98.18
2022-12-16T04:08:06.916Z,101.28
2022-12-16T04:08:29.754Z,99.55
2022-12-16T04:08:52.573Z,98.57
2022-12-16T04:09:18.235Z,99.93
2022-12-16T04:09:40.958Z,98.13
2022-12-16T04:10:04.019Z,96.90
2022-12-16T04:10:45.375Z,97.95
2022-12-16T04:11:27.205Z,96.63
2022-12-16T04:12:08.478Z,99.28
2022-12-16T04:12:49.970Z,96.70
2022-12-16T04:13:31.817Z,98.18
2022-12-16T04:14:13.633Z,103.53
2022-12-16T04:14:55.118Z,104.20
2022-12-16T04:15:38.369Z,104.95
2022-12-16T04:16:19.965Z,106.35
2022-12-16T04:17:01.605Z,111.45
2022-12-16T04:17:44.419Z,107.60
2022-12-16T04:18:27.314Z,112.57
2022-12-16T04:19:08.962Z,112.38
2022-12-16T04:19:51.099Z,115.13
2022-12-16T04:20:33.956Z,111.28
2022-12-16T04:21:15.609Z,112.70
2022-12-16T04:21:56.825Z,116.95
2022-12-16T04:22:39.101Z,115.20
2022-12-16T04:23:20.815Z,115.88
2022-12-16T04:24:05.273Z,118.28
2022-12-16T04:24:28.774Z,116.82
2022-12-16T04:24:51.415Z,116.15
2022-12-16T04:25:19.387Z,119.82
2022-12-16T04:25:42.244Z,121.60
2022-12-16T04:26:05.310Z,119.28
2022-12-16T04:26:29.013Z,117.18
2022-12-16T04:27:15.381Z,116.88
2022-12-16T04:27:38.774Z,117.65
2022-12-16T04:28:01.503Z,116.32
2022-12-16T04:28:24.225Z,117.78
2022-12-16T04:28:46.884Z,118.78
2022-12-16T04:29:09.670Z,112.50
2022-12-16T04:29:32.992Z,112.60
2022-12-16T04:30:16.026Z,113.82
2022-12-16T04:30:38.760Z,119.28
2022-12-16T04:31:01.571Z,110.40
2022-12-16T04:31:24.482Z,108.95
2022-12-16T04:31:47.154Z,109.65
2022-12-16T04:32:09.805Z,109.93
2022-12-16T04:32:52.717Z,114.03
2022-12-16T04:33:34.412Z,110.28
2022-12-16T04:34:16.467Z,115.20
2022-12-16T04:34:39.220Z,108.10
2022-12-16T04:35:21.850Z,111.50
2022-12-16T04:36:03.192Z,117.03
2022-12-16T04:36:41.418Z,112.63
2022-12-16T04:37:22.815Z,113.97
2022-12-16T04:38:04.274Z,116.53
2022-12-16T04:38:45.930Z,108.15
2022-12-16T04:39:27.460Z,111.40
2022-12-16T04:40:09.097Z,109.05
2022-12-16T04:40:50.684Z,112.30
2022-12-16T04:41:32.425Z,110.10
2022-12-16T04:42:14.424Z,108.07
2022-12-16T04:42:56.023Z,110.47
2022-12-16T04:43:37.631Z,107.75
2022-12-16T04:44:19.045Z,107.20
2022-12-16T04:45:00.646Z,102.80
2022-12-16T04:45:41.974Z,105.72
2022-12-16T04:46:23.861Z,101.63
2022-12-16T04:47:05.534Z,100.45
2022-12-16T04:47:48.074Z,102.65
2022-12-16T04:48:32.329Z,97.95
2022-12-16T04:49:13.689Z,100.75
2022-12-16T04:49:55.284Z,97.43
2022-12-16T04:50:36.905Z,96.15
2022-12-16T04:51:18.328Z,98.72
2022-12-16T04:51:59.918Z,99.63
2022-12-16T04:52:41.793Z,96.82
2022-12-16T04:53:23.315Z,94.47
2022-12-16T04:54:04.962Z,93.47
2022-12-16T04:54:46.527Z,94.65
2022-12-16T04:55:28.516Z,95.65
2022-12-16T04:56:09.525Z,94.45
2022-12-16T04:56:50.862Z,95.60
2022-12-16T04:57:33.856Z,96.80
2022-12-16T04:58:17.551Z,95.88
2022-12-16T04:58:58.726Z,96.82
2022-12-16T04:59:39.527Z,99.25
2022-12-16T05:00:20.615Z,95.88
2022-12-16T05:01:02.255Z,92.05
2022-12-16T05:01:43.967Z,98.65
2022-12-16T05:02:25.990Z,100.32
2022-12-16T05:03:08.177Z,96.38
2022-12-16T05:03:51.278Z,100.50
2022-12-16T05:04:33.049Z,99.68
2022-12-16T05:05:14.239Z,100.88
2022-12-16T05:05:55.515Z,102.28
2022-12-16T05:06:36.684Z,104.43
2022-12-16T05:07:18.316Z,101.97
2022-12-16T05:07:59.514Z,105.75
2022-12-16T05:08:40.799Z,103.10
2022-12-16T05:09:22.432Z,104.13
2022-12-16T05:10:03.933Z,101.00
2022-12-16T05:10:45.639Z,104.40
2022-12-16T05:11:27.205Z,105.18
2022-12-16T05:12:08.604Z,104.85
2022-12-16T05:12:50.159Z,103.93
2022-12-16T05:13:32.071Z,104.18
2022-12-16T05:14:13.435Z,105.32
2022-12-16T05:14:54.974Z,106.63
2022-12-16T05:15:36.547Z,105.88
2022-12-16T05:16:18.210Z,108.72
2022-12-16T05:17:00.143Z,106.32
2022-12-16T05:17:41.869Z,107.97
2022-12-16T05:18:28.005Z,107.78
2022-12-16T05:19:10.619Z,102.15
2022-12-16T05:19:52.096Z,104.40
2022-12-16T05:20:33.711Z,102.75
2022-12-16T05:21:16.721Z,104.47
2022-12-16T05:21:58.275Z,101.72
2022-12-16T05:22:39.983Z,103.82
2022-12-16T05:23:21.502Z,101.93
2022-12-16T05:24:02.999Z,97.53
2022-12-16T05:24:48.476Z,99.05
2022-12-16T05:25:33.117Z,102.30
2022-12-16T05:26:15.138Z,101.43
2022-12-16T05:26:56.649Z,97.45
2022-12-16T05:27:38.249Z,100.97
2022-12-16T05:28:33.547Z,102.07
2022-12-16T05:29:14.679Z,102.93
2022-12-16T05:29:56.330Z,96.65
2022-12-16T05:30:37.930Z,99.35
2022-12-16T05:31:19.240Z,100.75
2022-12-16T05:32:00.814Z,99.40
2022-12-16T05:32:42.084Z,106.10
2022-12-16T05:33:23.359Z,104.07
2022-12-16T05:34:04.721Z,104.25
2022-12-16T05:34:57.939Z,98.80
2022-12-16T05:35:39.121Z,101.03
2022-12-16T05:36:20.358Z,103.88
2022-12-16T05:37:01.864Z,99.90
2022-12-16T05:37:43.229Z,97.82
2022-12-16T05:38:24.156Z,103.35
2022-12-16T05:39:05.454Z,101.85
2022-12-16T05:39:46.719Z,100.43
2022-12-16T05:40:29.064Z,100.55
2022-12-16T05:41:10.565Z,102.82
2022-12-16T05:41:52.119Z,98.80
2022-12-16T05:42:33.394Z,94.78
2022-12-16T05:43:16.920Z,101.72
2022-12-16T05:43:58.610Z,102.72
2022-12-16T05:44:39.745Z,103.60
2022-12-16T05:45:20.883Z,103.97
2022-12-16T05:46:02.528Z,98.78
2022-12-16T05:46:44.151Z,102.88
2022-12-16T05:47:25.835Z,104.15
2022-12-16T05:48:07.346Z,99.75
2022-12-16T05:48:48.793Z,102.78
2022-12-16T05:49:29.860Z,104.63
2022-12-16T05:50:12.119Z,108.65
2022-12-16T05:50:53.438Z,109.18
2022-12-16T05:51:37.125Z,106.93
2022-12-16T05:52:18.644Z,105.90
2022-12-16T05:52:59.785Z,107.55
2022-12-16T05:53:41.194Z,105.47
2022-12-16T05:54:22.666Z,108.05
2022-12-16T05:55:04.108Z,112.30
2022-12-16T05:55:45.155Z,109.22
2022-12-16T05:56:26.667Z,110.32
2022-12-16T05:57:07.994Z,109.93
2022-12-16T05:57:49.418Z,114.57
2022-12-16T05:58:30.901Z,111.57